SBOSBO TIA / LATI
Speedbird OnlineSpeedbird Online TIA / LATI

Tirana International Airport Mother Teresa
14:07 11°C

Location Tirana, Albania
Latitude: 41.4146995544
Longitude: 19.7206001282
Web Airport Website | Wikipedia
Altitude 38 Meter / 126 Feet
Distance 1,864 KM / 1,158 Miles
from London.
Time Zone UTC +1 hours (Europe/Tirane)
Codes IATA: TIA
ICAO: LATI
Currency £1 equals ALL 132.46
Runways
RunwayLength (m)Surface
172750Asphalt
352750Asphalt
Radio
TypeDescriptionFrequency
ACCACC127.5
APPAPP133.15
TWRTWR122.5
Live ATC
METAR LATI 311250Z 35012KT 9999 FEW040 SCT080 11/M05 Q1016 NOSIG
TAF TAF LATI 311100Z 3112/0112 36014KT CAVOK TX12/3112Z TNM01/0105Z BECMG 3117/3119 VRB05KT
Weather As Of 31 Jan 2023 14:07
Description Scattered clouds
Wind 22 km/h from North (350°)
Cloud Cover 40%
Precipitation Rain: none, Snow: none
Sunrise 06:54
Sunset 16:54
Lounges Tirana Airport Business Class Lounge , International terminal
Rotations During the last 90 days there were
48 flights from LHR
42 flights to LHR



Support Speedbird Online

© 2017-2023 Speedbird Online